createdAt,value
2018-04-16T00:01:55.629Z,26.27
2018-04-16T00:04:24.159Z,30.23
2018-04-16T00:06:51.761Z,25.33
2018-04-16T00:09:19.349Z,29.07
2018-04-16T00:11:46.995Z,28.17
2018-04-16T00:14:14.616Z,27.33
2018-04-16T00:16:42.999Z,26.20
2018-04-16T00:24:50.421Z,28.10
2018-04-16T00:27:18.446Z,26.87
2018-04-16T00:29:46.102Z,24.40
2018-04-16T00:32:19.412Z,25.73
2018-04-16T00:34:52.713Z,31.17
2018-04-16T00:37:26.034Z,29.30
2018-04-16T00:39:59.208Z,25.10
2018-04-16T00:42:32.683Z,25.87
2018-04-16T00:45:05.901Z,24.10
2018-04-16T00:47:40.125Z,27.80
2018-04-16T00:50:13.705Z,29.37
2018-04-16T00:52:47.223Z,26.60
2018-04-16T00:55:21.598Z,36.57
2018-04-16T00:57:54.963Z,23.70
2018-04-16T01:03:19.607Z,29.20
2018-04-16T01:05:52.817Z,27.90
2018-04-16T01:08:28.012Z,26.43
2018-04-16T01:16:41.134Z,25.57
2018-04-16T01:19:16.025Z,33.87
2018-04-16T01:21:49.085Z,24.80
2018-04-16T01:24:23.165Z,25.60
2018-04-16T01:26:56.305Z,25.67
2018-04-16T01:29:30.260Z,25.40
2018-04-16T01:32:03.494Z,26.00
2018-04-16T01:34:37.468Z,24.17
2018-04-16T01:37:10.598Z,25.17
2018-04-16T01:39:43.787Z,27.83
2018-04-16T01:42:17.857Z,20.77
2018-04-16T01:44:51.807Z,20.83
2018-04-16T01:47:25.012Z,25.27
2018-04-16T01:49:59.257Z,22.70
2018-04-16T01:52:32.552Z,20.70
2018-04-16T01:55:05.892Z,22.93
2018-04-16T01:57:39.223Z,20.07
2018-04-16T02:00:12.456Z,26.07
2018-04-16T02:02:46.516Z,22.83
2018-04-16T02:05:19.798Z,19.63
2018-04-16T02:07:53.105Z,21.93
2018-04-16T02:10:27.176Z,26.10
2018-04-16T02:13:01.242Z,19.63
2018-04-16T02:15:36.031Z,19.43
2018-04-16T02:18:09.341Z,24.10
2018-04-16T02:20:43.470Z,26.53
2018-04-16T02:23:17.107Z,18.37
2018-04-16T02:25:50.354Z,26.00
2018-04-16T02:28:23.520Z,20.13
2018-04-16T02:30:56.738Z,23.80
2018-04-16T02:33:30.224Z,24.97
2018-04-16T02:36:03.410Z,27.73
2018-04-16T02:38:36.819Z,18.83
2018-04-16T02:41:09.810Z,25.60
2018-04-16T02:43:42.999Z,21.50
2018-04-16T02:46:16.825Z,17.43
2018-04-16T02:48:49.942Z,18.10
2018-04-16T02:51:23.888Z,21.57
2018-04-16T02:53:58.131Z,21.73
2018-04-16T02:56:31.459Z,23.77
2018-04-16T02:59:05.363Z,23.30
2018-04-16T03:01:39.259Z,16.13
2018-04-16T03:04:13.135Z,17.03
2018-04-16T03:06:46.434Z,18.77
2018-04-16T03:09:21.126Z,17.90
2018-04-16T03:11:54.997Z,17.83
2018-04-16T03:14:29.003Z,14.67
2018-04-16T03:17:02.960Z,20.50
2018-04-16T03:19:36.189Z,16.40
2018-04-16T03:22:10.725Z,15.10
2018-04-16T03:24:43.838Z,17.80
2018-04-16T03:27:16.885Z,17.93
2018-04-16T03:29:50.220Z,20.57
2018-04-16T03:32:24.140Z,16.50
2018-04-16T03:34:57.391Z,17.43
2018-04-16T03:37:30.373Z,13.27
2018-04-16T03:40:04.322Z,15.23
2018-04-16T03:42:37.597Z,16.93
2018-04-16T03:45:10.775Z,14.27
2018-04-16T03:47:43.890Z,14.03
2018-04-16T03:50:17.445Z,15.60
2018-04-16T03:52:50.553Z,14.97
2018-04-16T03:55:18.769Z,19.27
2018-04-16T03:57:46.344Z,12.97
2018-04-16T04:00:13.925Z,22.63
2018-04-16T04:02:41.533Z,11.83
2018-04-16T04:05:09.132Z,12.63
2018-04-16T04:07:37.084Z,11.47
2018-04-16T04:10:06.553Z,12.00
2018-04-16T04:12:34.551Z,14.57
2018-04-16T04:15:02.239Z,13.40
2018-04-16T04:17:29.831Z,15.40
2018-04-16T04:19:57.408Z,17.40
2018-04-16T04:22:36.662Z,16.13
2018-04-16T04:25:17.009Z,15.10
2018-04-16T04:27:56.264Z,13.43
2018-04-16T04:30:41.495Z,17.20
2018-04-16T04:33:09.096Z,12.77
2018-04-16T04:35:36.740Z,11.10
2018-04-16T04:38:05.035Z,13.03
2018-04-16T04:40:32.589Z,16.73
2018-04-16T04:43:00.926Z,16.17
2018-04-16T04:45:28.517Z,13.00
2018-04-16T04:47:56.105Z,10.87
2018-04-16T04:50:23.653Z,13.47
2018-04-16T04:52:51.331Z,15.73
2018-04-16T04:55:18.876Z,20.13
2018-04-16T04:57:47.215Z,13.03
2018-04-16T05:00:14.805Z,19.30
2018-04-16T05:02:42.368Z,13.93
2018-04-16T05:05:09.937Z,16.20
2018-04-16T05:07:37.797Z,21.43
2018-04-16T05:10:06.837Z,25.67
2018-04-16T05:12:35.428Z,15.57
2018-04-16T05:15:03.480Z,17.40
2018-04-16T05:17:31.814Z,19.23
2018-04-16T05:19:59.446Z,15.23
2018-04-16T05:22:27.087Z,15.80
2018-04-16T05:24:54.691Z,22.83
2018-04-16T05:27:22.244Z,16.13
2018-04-16T05:29:49.855Z,24.90
2018-04-16T05:32:18.218Z,21.23
2018-04-16T05:34:46.775Z,16.50
2018-04-16T05:37:14.439Z,17.80
2018-04-16T05:39:42.056Z,18.10
2018-04-16T05:42:09.759Z,23.73
2018-04-16T05:44:37.348Z,18.33
2018-04-16T05:47:05.587Z,18.87
2018-04-16T05:49:33.152Z,16.00
2018-04-16T05:52:01.552Z,23.33
2018-04-16T05:54:30.264Z,20.73
2018-04-16T05:56:57.861Z,20.10
2018-04-16T05:59:25.460Z,22.97
2018-04-16T06:01:53.930Z,19.57
2018-04-16T06:04:21.715Z,23.57
2018-04-16T06:06:49.295Z,20.57
2018-04-16T06:09:17.871Z,22.57
2018-04-16T06:11:45.504Z,22.50
2018-04-16T06:14:14.145Z,30.20
2018-04-16T06:16:41.800Z,33.70
2018-04-16T06:19:09.523Z,22.37
2018-04-16T06:21:38.019Z,29.00
2018-04-16T06:24:06.490Z,21.30
2018-04-16T06:26:34.395Z,29.67
2018-04-16T06:29:02.989Z,25.13
2018-04-16T06:31:30.701Z,27.40
2018-04-16T06:33:58.306Z,26.37
2018-04-16T06:36:26.036Z,30.50
2018-04-16T06:38:53.612Z,27.13
2018-04-16T06:41:21.371Z,34.30
2018-04-16T06:43:49.013Z,29.90
2018-04-16T06:46:16.571Z,32.90
2018-04-16T06:48:44.236Z,28.90
2018-04-16T06:51:12.721Z,33.40
2018-04-16T06:53:41.199Z,34.53
2018-04-16T06:56:09.599Z,39.03
2018-04-16T06:58:37.186Z,37.10
2018-04-16T07:01:06.335Z,35.50
2018-04-16T07:03:35.207Z,34.53
2018-04-16T07:06:05.498Z,38.53
2018-04-16T07:08:33.072Z,46.97
2018-04-16T07:11:00.721Z,32.70
2018-04-16T07:13:30.181Z,37.73
2018-04-16T07:15:57.790Z,36.90
2018-04-16T07:18:26.270Z,33.47
2018-04-16T07:20:54.828Z,44.67
2018-04-16T07:23:22.575Z,36.80
2018-04-16T07:25:50.209Z,41.83
2018-04-16T07:28:17.809Z,48.10
2018-04-16T07:30:45.422Z,38.93
2018-04-16T07:33:13.820Z,40.53
2018-04-16T07:35:41.548Z,46.60
2018-04-16T07:38:10.952Z,39.17
2018-04-16T07:40:38.517Z,41.93
2018-04-16T07:43:06.584Z,35.70
2018-04-16T07:45:35.140Z,39.43
2018-04-16T07:48:04.420Z,40.57
2018-04-16T07:50:32.186Z,40.43
2018-04-16T07:52:59.877Z,39.93
2018-04-16T07:55:27.441Z,36.80
2018-04-16T07:57:55.791Z,43.90
2018-04-16T08:00:23.571Z,37.97
2018-04-16T08:02:51.556Z,39.50
2018-04-16T08:05:19.129Z,32.67
2018-04-16T08:07:46.735Z,47.30
2018-04-16T08:10:15.114Z,35.40
2018-04-16T08:12:42.908Z,39.53
2018-04-16T08:15:10.541Z,43.50
2018-04-16T08:17:38.425Z,36.77
2018-04-16T08:20:06.797Z,39.60
2018-04-16T08:22:35.624Z,41.87
2018-04-16T08:25:03.264Z,41.60
2018-04-16T08:27:31.070Z,42.33
2018-04-16T08:29:59.437Z,35.97
2018-04-16T08:32:27.242Z,37.63
2018-04-16T08:34:54.799Z,33.40
2018-04-16T08:37:22.450Z,37.40
2018-04-16T08:39:50.027Z,39.03
2018-04-16T08:42:18.549Z,38.13
2018-04-16T08:44:46.229Z,35.80
2018-04-16T08:47:14.576Z,37.50
2018-04-16T08:49:42.217Z,36.33
2018-04-16T08:52:09.860Z,32.43
2018-04-16T08:54:38.299Z,35.07
2018-04-16T08:57:08.101Z,38.10
2018-04-16T08:59:37.173Z,34.00
2018-04-16T09:02:06.393Z,33.80
2018-04-16T09:04:34.972Z,31.50
2018-04-16T09:07:02.525Z,31.00
2018-04-16T09:09:30.995Z,28.50
2018-04-16T09:11:58.904Z,29.23
2018-04-16T09:14:26.501Z,31.30
2018-04-16T09:16:54.877Z,30.03
2018-04-16T09:19:24.182Z,30.03
2018-04-16T09:21:52.592Z,35.20
2018-04-16T09:24:21.189Z,34.50
2018-04-16T09:26:49.524Z,36.07
2018-04-16T09:29:17.122Z,32.50
2018-04-16T09:31:45.548Z,40.33
2018-04-16T09:34:13.303Z,36.50
2018-04-16T09:36:40.938Z,34.13
2018-04-16T09:39:09.473Z,34.87
2018-04-16T09:41:37.250Z,39.63
2018-04-16T09:44:05.425Z,35.13
2018-04-16T09:46:34.636Z,33.70
2018-04-16T09:49:02.806Z,33.27
2018-04-16T09:51:30.521Z,33.87
2018-04-16T09:53:58.081Z,35.33
2018-04-16T09:56:26.002Z,36.50
2018-04-16T09:58:53.611Z,30.90
2018-04-16T10:01:21.570Z,36.33
2018-04-16T10:03:49.616Z,31.70
2018-04-16T10:06:17.230Z,32.23
2018-04-16T10:08:44.791Z,30.93
2018-04-16T10:11:12.484Z,37.37
2018-04-16T10:13:40.835Z,29.60
2018-04-16T10:16:08.415Z,27.20
2018-04-16T10:18:36.646Z,27.57
2018-04-16T10:21:05.086Z,25.70
2018-04-16T10:23:33.589Z,27.20
2018-04-16T10:26:01.195Z,26.80
2018-04-16T10:28:30.459Z,29.23
2018-04-16T10:30:59.094Z,24.53
2018-04-16T10:33:26.442Z,25.90
2018-04-16T10:35:53.868Z,26.40
2018-04-16T10:38:21.037Z,25.67
2018-04-16T10:40:48.899Z,34.57
2018-04-16T10:43:16.843Z,32.83
2018-04-16T10:45:44.701Z,23.07
2018-04-16T10:48:12.692Z,24.57
2018-04-16T10:50:39.767Z,25.23
2018-04-16T10:53:08.741Z,27.93
2018-04-16T10:55:36.198Z,24.40
2018-04-16T10:58:03.356Z,18.33
2018-04-16T11:00:30.871Z,25.43
2018-04-16T11:02:58.459Z,21.33
2018-04-16T11:05:26.147Z,19.33
2018-04-16T11:07:54.893Z,20.00
2018-04-16T11:10:22.480Z,22.10
2018-04-16T11:12:50.117Z,24.43
2018-04-16T11:15:18.962Z,21.07
2018-04-16T11:17:46.622Z,19.90
2018-04-16T11:20:14.275Z,28.70
2018-04-16T11:22:41.969Z,23.97
2018-04-16T11:25:09.564Z,21.43
2018-04-16T11:27:37.733Z,27.10
2018-04-16T11:30:07.381Z,24.27
2018-04-16T11:32:35.471Z,17.57
2018-04-16T11:35:05.605Z,23.77
2018-04-16T11:37:34.463Z,20.73
2018-04-16T11:40:02.263Z,24.57
2018-04-16T11:42:29.841Z,19.20
2018-04-16T11:44:57.753Z,23.80
2018-04-16T11:47:25.700Z,25.07
2018-04-16T11:49:53.281Z,23.27
2018-04-16T11:52:20.900Z,21.90
2018-04-16T11:54:48.505Z,23.33
2018-04-16T11:57:16.104Z,26.57
2018-04-16T11:59:43.653Z,25.60
2018-04-16T12:02:11.582Z,28.73
2018-04-16T12:04:39.362Z,30.33
2018-04-16T12:07:06.915Z,31.87
2018-04-16T12:09:37.029Z,30.17
2018-04-16T12:12:06.315Z,26.03
2018-04-16T12:14:36.214Z,22.67
2018-04-16T12:17:04.845Z,26.73
2018-04-16T12:19:32.501Z,24.27
2018-04-16T12:22:00.253Z,29.67
2018-04-16T12:24:27.793Z,20.50
2018-04-16T12:26:55.499Z,21.07
2018-04-16T12:29:23.313Z,22.10
2018-04-16T12:31:51.348Z,24.93
2018-04-16T12:34:18.977Z,19.70
2018-04-16T12:36:46.670Z,27.43
2018-04-16T12:41:46.857Z,22.93
2018-04-16T12:44:14.500Z,19.97
2018-04-16T12:46:42.075Z,21.23
2018-04-16T12:49:10.098Z,19.13
2018-04-16T12:51:37.684Z,18.10
2018-04-16T12:54:06.603Z,21.70
2018-04-16T12:56:34.980Z,24.40
2018-04-16T12:59:03.565Z,26.87
2018-04-16T13:01:31.237Z,25.93
2018-04-16T13:03:59.954Z,29.20
2018-04-16T13:06:27.613Z,24.77
2018-04-16T13:08:56.201Z,27.70
2018-04-16T13:11:23.762Z,35.77
2018-04-16T13:13:51.366Z,26.57
2018-04-16T13:16:19.041Z,39.67
2018-04-16T13:18:46.651Z,45.43
2018-04-16T13:21:14.395Z,36.73
2018-04-16T13:23:42.884Z,39.40
2018-04-16T13:26:11.273Z,41.00
2018-04-16T13:28:39.736Z,34.37
2018-04-16T13:31:08.390Z,43.13
2018-04-16T13:33:36.717Z,36.10
2018-04-16T13:36:05.298Z,41.00
2018-04-16T13:38:33.064Z,35.73
2018-04-16T13:41:00.679Z,35.40
2018-04-16T13:43:28.312Z,40.27
2018-04-16T13:46:00.918Z,32.80
2018-04-16T13:48:28.575Z,32.60
2018-04-16T13:50:57.020Z,32.70
2018-04-16T13:53:24.617Z,30.87
2018-04-16T13:55:52.359Z,34.33
2018-04-16T13:58:20.739Z,31.43
2018-04-16T14:00:48.707Z,35.47
2018-04-16T14:03:17.299Z,29.03
2018-04-16T14:05:44.997Z,24.60
2018-04-16T14:08:12.716Z,28.47
2018-04-16T14:10:40.365Z,27.97
2018-04-16T14:13:07.964Z,29.97
2018-04-16T14:15:36.451Z,20.83
2018-04-16T14:18:04.452Z,26.53
2018-04-16T14:20:32.200Z,31.43
2018-04-16T14:25:51.955Z,28.13
2018-04-16T14:28:19.507Z,25.97
2018-04-16T14:30:47.027Z,24.23
2018-04-16T14:33:14.601Z,18.10
2018-04-16T14:35:42.308Z,31.70
2018-04-16T14:38:09.980Z,25.33
2018-04-16T14:40:37.593Z,24.77
2018-04-16T14:43:05.288Z,23.10
2018-04-16T14:45:32.886Z,27.93
2018-04-16T14:48:00.449Z,23.37
2018-04-16T14:50:28.047Z,21.60
2018-04-16T14:52:56.625Z,21.70
2018-04-16T14:55:24.214Z,24.07
2018-04-16T14:57:53.562Z,21.43
2018-04-16T15:00:22.922Z,22.87
2018-04-16T15:02:50.498Z,19.67
2018-04-16T15:05:18.039Z,18.80
2018-04-16T15:07:47.069Z,15.83
2018-04-16T15:10:14.619Z,17.10
2018-04-16T15:12:44.032Z,20.70
2018-04-16T15:15:11.619Z,23.57
2018-04-16T15:17:39.182Z,16.97
2018-04-16T15:20:08.097Z,15.80
2018-04-16T15:22:35.657Z,16.60
2018-04-16T15:25:05.378Z,12.97
2018-04-16T15:27:33.924Z,14.53
2018-04-16T15:30:01.549Z,11.83
2018-04-16T15:32:29.165Z,16.97
2018-04-16T15:34:57.709Z,15.80
2018-04-16T15:37:26.640Z,12.77
2018-04-16T15:39:54.312Z,15.73
2018-04-16T15:42:21.953Z,17.53
2018-04-16T15:44:52.591Z,14.10
2018-04-16T15:47:20.155Z,15.87
2018-04-16T15:49:49.808Z,16.03
2018-04-16T15:52:17.360Z,17.23
2018-04-16T15:54:45.275Z,17.43
2018-04-16T15:57:12.847Z,14.50
2018-04-16T15:59:40.473Z,16.47
2018-04-16T16:02:08.234Z,17.07
2018-04-16T16:04:36.850Z,14.67
2018-04-16T16:07:05.484Z,15.60
2018-04-16T16:09:33.123Z,13.40
2018-04-16T16:12:02.861Z,20.70
2018-04-16T16:14:32.170Z,20.33
2018-04-16T16:17:01.793Z,21.77
2018-04-16T16:19:29.337Z,18.00
2018-04-16T16:21:56.930Z,15.20
2018-04-16T16:24:24.558Z,16.70
2018-04-16T16:26:52.207Z,24.80
2018-04-16T16:29:20.447Z,21.40
2018-04-16T16:31:48.943Z,24.43
2018-04-16T16:34:16.503Z,16.50
2018-04-16T16:36:44.158Z,31.57
2018-04-16T16:39:12.783Z,23.33
2018-04-16T16:41:40.497Z,22.43
2018-04-16T16:44:12.900Z,22.83
2018-04-16T16:46:40.978Z,21.37
2018-04-16T16:49:09.692Z,22.07
2018-04-16T16:51:39.350Z,26.13
2018-04-16T16:54:13.014Z,20.07
2018-04-16T16:56:41.679Z,17.20
2018-04-16T16:59:09.318Z,15.00
2018-04-16T17:01:36.898Z,21.53
2018-04-16T17:04:05.683Z,13.40
2018-04-16T17:06:33.537Z,18.70
2018-04-16T17:09:01.186Z,16.77
2018-04-16T17:11:28.990Z,20.87
2018-04-16T17:13:56.596Z,24.63
2018-04-16T17:16:26.231Z,18.70
2018-04-16T17:18:53.797Z,21.37
2018-04-16T17:21:21.774Z,17.87
2018-04-16T17:23:54.360Z,15.03
2018-04-16T17:26:22.279Z,17.60
2018-04-16T17:28:49.939Z,13.23
2018-04-16T17:31:18.697Z,15.13
2018-04-16T17:33:47.343Z,13.70
2018-04-16T17:36:15.117Z,12.10
2018-04-16T17:38:45.266Z,10.43
2018-04-16T17:41:13.492Z,14.40
2018-04-16T17:43:43.775Z,12.63
2018-04-16T17:46:17.032Z,11.57
2018-04-16T17:48:47.183Z,9.13
2018-04-16T17:51:16.673Z,12.63
2018-04-16T17:53:45.506Z,7.83
2018-04-16T17:56:22.338Z,10.53
2018-04-16T17:58:55.736Z,8.70
2018-04-16T18:01:32.494Z,11.50
2018-04-16T18:04:05.667Z,12.23
2018-04-16T18:06:40.711Z,11.70
2018-04-16T18:09:08.473Z,14.53
2018-04-16T18:11:45.393Z,15.10
2018-04-16T18:14:14.221Z,15.57
2018-04-16T18:16:59.982Z,13.57
2018-04-16T18:19:27.941Z,14.60
2018-04-16T18:21:56.673Z,15.00
2018-04-16T18:24:25.291Z,17.00
2018-04-16T18:26:59.095Z,14.10
2018-04-16T18:29:29.505Z,12.30
2018-04-16T18:31:58.648Z,15.00
2018-04-16T18:34:28.653Z,14.90
2018-04-16T18:36:57.888Z,14.60
2018-04-16T18:39:27.782Z,14.20
2018-04-16T18:41:57.366Z,12.43
2018-04-16T18:44:28.887Z,12.27
2018-04-16T18:46:58.936Z,12.30
2018-04-16T18:49:35.245Z,10.57
2018-04-16T18:52:03.328Z,11.77
2018-04-16T18:54:32.380Z,12.90
2018-04-16T18:57:00.512Z,8.83
2018-04-16T18:59:29.099Z,9.33
2018-04-16T19:02:04.394Z,11.10
2018-04-16T19:04:34.224Z,10.63
2018-04-16T19:10:50.418Z,10.73
2018-04-16T19:13:18.077Z,7.77
2018-04-16T19:15:47.128Z,9.63
2018-04-16T19:18:15.741Z,9.47
2018-04-16T19:20:49.026Z,8.20
2018-04-16T19:23:16.828Z,10.03
2018-04-16T19:25:45.385Z,9.27
2018-04-16T19:28:18.746Z,8.60
2018-04-16T19:30:47.066Z,7.30
2018-04-16T19:33:20.364Z,9.43
2018-04-16T19:35:51.747Z,11.23
2018-04-16T19:38:21.162Z,7.77
2018-04-16T19:40:48.759Z,9.30
2018-04-16T19:43:20.434Z,11.20
2018-04-16T19:45:48.112Z,8.80
2018-04-16T19:48:16.741Z,10.73
2018-04-16T19:50:45.728Z,8.00
2018-04-16T19:53:14.420Z,10.10
2018-04-16T19:55:47.735Z,9.10
2018-04-16T19:58:21.594Z,7.93
2018-04-16T20:00:49.262Z,10.20
2018-04-16T20:03:23.525Z,7.90
2018-04-16T20:05:51.501Z,9.87
2018-04-16T20:08:19.130Z,9.70
2018-04-16T20:10:47.934Z,7.70
2018-04-16T20:13:16.469Z,9.00
2018-04-16T20:15:44.543Z,12.83
2018-04-16T20:18:12.967Z,9.37
2018-04-16T20:20:41.472Z,12.47
2018-04-16T20:23:09.042Z,12.03
2018-04-16T20:25:36.604Z,9.57
2018-04-16T20:28:04.266Z,13.17
2018-04-16T20:30:31.941Z,10.90
2018-04-16T20:32:59.503Z,10.30
2018-04-16T20:35:27.183Z,10.87
2018-04-16T20:37:54.845Z,11.70
2018-04-16T20:40:22.503Z,12.90
2018-04-16T20:42:51.188Z,15.87
2018-04-16T20:45:18.829Z,17.90
2018-04-16T20:47:47.160Z,14.03
2018-04-16T20:50:16.357Z,14.00
2018-04-16T20:52:45.824Z,11.90
2018-04-16T20:55:15.082Z,14.27
2018-04-16T20:57:42.735Z,15.10
2018-04-16T21:00:10.425Z,14.80
2018-04-16T21:02:37.985Z,14.90
2018-04-16T21:05:06.500Z,25.27
2018-04-16T21:07:34.224Z,17.30
2018-04-16T21:10:01.922Z,19.60
2018-04-16T21:12:30.365Z,19.20
2018-04-16T21:14:58.052Z,18.23
2018-04-16T21:17:26.499Z,19.87
2018-04-16T21:19:54.949Z,17.73
2018-04-16T21:22:22.705Z,18.67
2018-04-16T21:24:51.120Z,16.47
2018-04-16T21:27:18.881Z,18.47
2018-04-16T21:29:46.680Z,20.27
2018-04-16T21:32:15.114Z,20.07
2018-04-16T21:34:42.843Z,20.33
2018-04-16T21:37:11.271Z,17.87
2018-04-16T21:39:38.900Z,21.37
2018-04-16T21:42:06.556Z,22.27
2018-04-16T21:44:34.193Z,19.10
2018-04-16T21:47:02.948Z,19.53
2018-04-16T21:49:30.650Z,19.27
2018-04-16T21:51:58.505Z,19.70
2018-04-16T21:54:26.895Z,19.80
2018-04-16T21:56:54.573Z,16.33
2018-04-16T21:59:22.219Z,18.90
2018-04-16T22:01:50.605Z,20.50
2018-04-16T22:04:18.327Z,19.83
2018-04-16T22:06:47.107Z,17.63
2018-04-16T22:09:15.490Z,19.10
2018-04-16T22:11:44.613Z,16.73
2018-04-16T22:14:12.470Z,22.60
2018-04-16T22:16:40.271Z,17.17
2018-04-16T22:19:08.685Z,18.43
2018-04-16T22:21:36.443Z,17.10
2018-04-16T22:24:04.070Z,19.10
2018-04-16T22:26:31.817Z,20.03
2018-04-16T22:29:00.405Z,19.13
2018-04-16T22:31:28.113Z,23.87
2018-04-16T22:33:55.813Z,20.40
2018-04-16T22:36:23.403Z,20.73
2018-04-16T22:38:51.076Z,17.30
2018-04-16T22:41:18.731Z,16.67
2018-04-16T22:43:46.622Z,17.00
2018-04-16T22:46:15.421Z,22.43
2018-04-16T22:48:43.076Z,23.00
2018-04-16T22:51:11.437Z,17.77
2018-04-16T22:53:39.823Z,20.33
2018-04-16T22:56:07.493Z,16.27
2018-04-16T22:58:35.140Z,17.00
2018-04-16T23:01:02.853Z,15.63
2018-04-16T23:03:30.567Z,17.57
2018-04-16T23:05:58.240Z,19.43
2018-04-16T23:08:26.685Z,18.37
2018-04-16T23:10:54.501Z,21.53
2018-04-16T23:13:22.224Z,16.30
2018-04-16T23:15:49.941Z,17.87
2018-04-16T23:18:17.627Z,17.80
2018-04-16T23:20:45.509Z,16.13
2018-04-16T23:23:13.240Z,17.00
2018-04-16T23:25:41.025Z,16.67
2018-04-16T23:28:08.717Z,17.40
2018-04-16T23:30:36.443Z,21.17
2018-04-16T23:33:04.090Z,15.27
2018-04-16T23:35:31.775Z,19.37
2018-04-16T23:38:00.225Z,19.00
2018-04-16T23:40:27.898Z,19.73
2018-04-16T23:42:56.044Z,18.37
2018-04-16T23:45:23.690Z,16.67
2018-04-16T23:47:52.142Z,18.37
2018-04-16T23:50:19.798Z,16.07
2018-04-16T23:52:47.423Z,22.23
2018-04-16T23:55:17.034Z,16.00
2018-04-16T23:57:46.425Z,17.33
